createdAt,value
2018-04-07T00:03:37.755Z,45.02
2018-04-07T00:06:03.927Z,45.01
2018-04-07T00:08:30.095Z,45.04
2018-04-07T00:10:56.307Z,45.05
2018-04-07T00:13:22.482Z,44.99
2018-04-07T00:15:48.672Z,45.02
2018-04-07T00:18:14.941Z,45.00
2018-04-07T00:20:41.128Z,45.03
2018-04-07T00:23:07.329Z,45.02
2018-04-07T00:25:33.858Z,44.97
2018-04-07T00:28:00.046Z,44.98
2018-04-07T00:30:26.219Z,45.00
2018-04-07T00:32:52.438Z,45.01
2018-04-07T00:35:18.611Z,45.00
2018-04-07T00:37:44.774Z,45.02
2018-04-07T00:40:11.019Z,45.03
2018-04-07T00:42:37.228Z,45.04
2018-04-07T00:45:03.468Z,45.02
2018-04-07T00:47:29.713Z,45.00
2018-04-07T00:49:55.862Z,45.02
2018-04-07T00:52:22.194Z,45.03
2018-04-07T00:54:48.373Z,45.02
2018-04-07T00:57:14.977Z,45.01
2018-04-07T00:59:41.183Z,45.01
2018-04-07T01:02:07.356Z,44.99
2018-04-07T01:04:33.926Z,44.97
2018-04-07T01:07:00.147Z,44.95
2018-04-07T01:09:26.718Z,44.92
2018-04-07T01:11:52.932Z,44.94
2018-04-07T01:14:19.132Z,44.93
2018-04-07T01:16:45.371Z,44.94
2018-04-07T01:19:11.898Z,44.95
2018-04-07T01:21:38.113Z,44.94
2018-04-07T01:24:04.334Z,44.93
2018-04-07T01:26:30.507Z,44.93
2018-04-07T01:28:56.704Z,44.91
2018-04-07T01:31:22.897Z,44.91
2018-04-07T01:33:49.137Z,44.90
2018-04-07T01:36:15.295Z,44.86
2018-04-07T01:38:41.491Z,44.87
2018-04-07T01:41:07.686Z,44.87
2018-04-07T01:43:34.179Z,44.89
2018-04-07T01:46:00.370Z,44.90
2018-04-07T01:48:26.590Z,44.88
2018-04-07T01:50:52.782Z,44.86
2018-04-07T01:53:18.957Z,44.88
2018-04-07T01:55:45.206Z,44.87
2018-04-07T01:58:11.393Z,44.88
2018-04-07T02:00:37.570Z,44.87
2018-04-07T02:03:03.821Z,44.88
2018-04-07T02:05:30.005Z,44.91
2018-04-07T02:07:56.203Z,44.91
2018-04-07T02:10:22.376Z,44.91
2018-04-07T02:12:48.574Z,44.89
2018-04-07T02:15:14.801Z,44.89
2018-04-07T02:17:41.033Z,44.93
2018-04-07T02:20:07.500Z,44.93
2018-04-07T02:22:34.087Z,44.95
2018-04-07T02:25:00.260Z,44.95
2018-04-07T02:27:26.424Z,44.92
2018-04-07T02:29:52.662Z,44.96
2018-04-07T02:32:18.843Z,44.96
2018-04-07T02:34:45.440Z,44.93
2018-04-07T02:37:11.920Z,44.91
2018-04-07T02:39:38.107Z,44.90
2018-04-07T02:42:04.314Z,44.90
2018-04-07T02:44:30.526Z,44.88
2018-04-07T02:46:56.752Z,44.87
2018-04-07T02:49:22.921Z,44.90
2018-04-07T02:51:49.072Z,44.85
2018-04-07T02:54:15.258Z,44.86
2018-04-07T02:56:41.469Z,44.85
2018-04-07T02:59:07.668Z,44.85
2018-04-07T03:01:33.907Z,44.84
2018-04-07T03:04:00.220Z,44.85
2018-04-07T03:06:26.454Z,44.84
2018-04-07T03:08:52.999Z,44.83
2018-04-07T03:11:19.227Z,44.81
2018-04-07T03:13:45.419Z,44.79
2018-04-07T03:16:11.626Z,44.79
2018-04-07T03:18:37.905Z,44.75
2018-04-07T03:21:04.336Z,44.74
2018-04-07T03:23:30.758Z,44.71
2018-04-07T03:25:57.299Z,44.69
2018-04-07T03:28:23.463Z,44.69
2018-04-07T03:30:49.650Z,44.67
2018-04-07T03:33:15.880Z,44.63
2018-04-07T03:35:42.083Z,44.67
2018-04-07T03:38:08.266Z,44.66
2018-04-07T03:40:34.465Z,44.66
2018-04-07T03:43:00.738Z,44.66
2018-04-07T03:45:27.226Z,44.69
2018-04-07T03:47:53.766Z,44.68
2018-04-07T03:50:20.013Z,44.65
2018-04-07T03:52:46.221Z,44.68
2018-04-07T03:55:12.754Z,44.65
2018-04-07T03:57:39.360Z,44.62
2018-04-07T04:00:05.566Z,44.60
2018-04-07T04:02:31.779Z,44.62
2018-04-07T04:04:58.107Z,44.62
2018-04-07T04:07:24.320Z,44.63
2018-04-07T04:09:50.849Z,44.66
2018-04-07T04:12:17.493Z,44.70
2018-04-07T04:14:43.687Z,44.71
2018-04-07T04:17:09.899Z,44.67
2018-04-07T04:19:36.092Z,44.67
2018-04-07T04:22:02.305Z,44.66
2018-04-07T04:24:28.558Z,44.62
2018-04-07T04:26:54.782Z,44.63
2018-04-07T04:29:21.280Z,44.59
2018-04-07T04:31:47.498Z,44.53
2018-04-07T04:34:14.036Z,44.51
2018-04-07T04:36:40.240Z,44.50
2018-04-07T04:39:06.696Z,44.46
2018-04-07T04:41:32.963Z,44.45
2018-04-07T04:43:59.135Z,44.39
2018-04-07T04:46:25.345Z,44.35
2018-04-07T04:48:51.628Z,44.32
2018-04-07T04:51:17.794Z,44.34
2018-04-07T04:53:44.004Z,44.30
2018-04-07T04:56:10.266Z,44.25
2018-04-07T04:58:36.555Z,44.27
2018-04-07T05:01:02.723Z,44.27
2018-04-07T05:03:28.922Z,44.23
2018-04-07T05:05:55.467Z,44.22
2018-04-07T05:08:21.620Z,44.20
2018-04-07T05:10:48.079Z,44.17
2018-04-07T05:13:14.271Z,44.11
2018-04-07T05:15:40.461Z,44.13
2018-04-07T05:18:07.019Z,44.11
2018-04-07T05:20:33.182Z,44.09
2018-04-07T05:23:06.396Z,44.07
2018-04-07T05:25:32.603Z,44.08
2018-04-07T05:27:58.789Z,44.08
2018-04-07T05:30:25.018Z,44.07
2018-04-07T05:32:51.247Z,44.02
2018-04-07T05:35:17.885Z,43.98
2018-04-07T05:37:44.386Z,43.98
2018-04-07T05:40:10.602Z,43.94
2018-04-07T05:42:36.848Z,43.90
2018-04-07T05:45:03.023Z,43.87
2018-04-07T05:47:29.181Z,43.89
2018-04-07T05:49:55.434Z,43.90
2018-04-07T05:52:21.954Z,43.88
2018-04-07T05:54:48.180Z,43.82
2018-04-07T05:57:14.322Z,43.84
2018-04-07T05:59:40.844Z,43.78
2018-04-07T06:02:07.375Z,43.75
2018-04-07T06:04:33.543Z,43.70
2018-04-07T06:06:59.728Z,43.66
2018-04-07T06:09:25.926Z,43.69
2018-04-07T06:11:52.497Z,43.72
2018-04-07T06:14:19.107Z,43.69
2018-04-07T06:16:45.292Z,43.67
2018-04-07T06:19:11.512Z,43.66
2018-04-07T06:21:38.009Z,43.59
2018-04-07T06:24:04.195Z,43.57
2018-04-07T06:26:30.354Z,43.54
2018-04-07T06:28:56.595Z,43.54
2018-04-07T06:31:22.788Z,43.49
2018-04-07T06:33:49.004Z,43.48
2018-04-07T06:36:15.288Z,43.45
2018-04-07T06:38:41.448Z,43.42
2018-04-07T06:41:07.602Z,43.39
2018-04-07T06:43:33.930Z,43.37
2018-04-07T06:46:00.107Z,43.35
2018-04-07T06:48:26.279Z,43.35
2018-04-07T06:50:52.475Z,43.29
2018-04-07T06:53:18.660Z,43.26
2018-04-07T06:55:44.873Z,43.25
2018-04-07T06:58:11.494Z,43.22
2018-04-07T07:00:37.683Z,43.21
2018-04-07T07:03:03.862Z,43.15
2018-04-07T07:05:30.115Z,43.06
2018-04-07T07:07:56.721Z,43.04
2018-04-07T07:10:22.885Z,43.04
2018-04-07T07:12:49.059Z,43.02
2018-04-07T07:15:15.308Z,43.00
2018-04-07T07:17:41.483Z,42.99
2018-04-07T07:20:07.702Z,42.93
2018-04-07T07:22:33.888Z,42.89
2018-04-07T07:25:00.181Z,42.84
2018-04-07T07:27:26.413Z,42.82
2018-04-07T07:29:52.590Z,42.79
2018-04-07T07:32:18.803Z,42.80
2018-04-07T07:34:44.985Z,42.78
2018-04-07T07:37:11.817Z,42.76
2018-04-07T07:39:38.027Z,42.73
2018-04-07T07:42:04.259Z,42.75
2018-04-07T07:44:30.842Z,42.73
2018-04-07T07:46:57.027Z,42.72
2018-04-07T07:49:23.185Z,42.71
2018-04-07T07:51:49.408Z,42.67
2018-04-07T07:54:15.629Z,42.63
2018-04-07T07:56:41.778Z,42.57
2018-04-07T07:59:08.276Z,42.58
2018-04-07T08:01:34.819Z,42.58
2018-04-07T08:04:01.017Z,42.55
2018-04-07T08:06:27.564Z,42.52
2018-04-07T08:08:53.800Z,42.51
2018-04-07T08:11:19.983Z,42.44
2018-04-07T08:13:46.158Z,42.37
2018-04-07T08:16:12.368Z,42.35
2018-04-07T08:18:38.810Z,42.32
2018-04-07T08:21:05.023Z,42.26
2018-04-07T08:23:31.198Z,42.20
2018-04-07T08:25:57.460Z,42.14
2018-04-07T08:28:23.680Z,42.10
2018-04-07T08:30:50.004Z,42.07
2018-04-07T08:33:16.498Z,42.03
2018-04-07T08:35:42.653Z,42.01
2018-04-07T08:38:08.950Z,41.98
2018-04-07T08:40:35.168Z,41.95
2018-04-07T08:43:01.734Z,41.92
2018-04-07T08:45:27.900Z,41.87
2018-04-07T08:47:54.105Z,41.84
2018-04-07T08:50:20.387Z,41.85
2018-04-07T08:52:46.610Z,41.83
2018-04-07T08:55:12.823Z,41.83
2018-04-07T08:57:39.272Z,41.83
2018-04-07T09:00:05.435Z,41.83
2018-04-07T09:02:31.870Z,41.83
2018-04-07T09:04:58.048Z,41.82
2018-04-07T09:07:24.646Z,41.77
2018-04-07T09:09:50.810Z,41.79
2018-04-07T09:12:16.998Z,41.76
2018-04-07T09:14:43.518Z,41.71
2018-04-07T09:17:09.734Z,41.70
2018-04-07T09:19:35.947Z,41.70
2018-04-07T09:22:02.179Z,41.69
2018-04-07T09:24:28.413Z,41.65
2018-04-07T09:26:54.617Z,41.62
2018-04-07T09:29:20.802Z,41.58
2018-04-07T09:31:46.971Z,41.57
2018-04-07T09:34:13.182Z,41.53
2018-04-07T09:36:39.660Z,41.53
2018-04-07T09:39:06.177Z,41.52
2018-04-07T09:41:32.426Z,41.48
2018-04-07T09:43:58.650Z,41.48
2018-04-07T09:46:24.958Z,41.46
2018-04-07T09:48:51.397Z,41.44
2018-04-07T09:51:17.560Z,41.41
2018-04-07T09:53:43.822Z,41.35
2018-04-07T09:56:10.061Z,41.32
2018-04-07T09:58:36.238Z,41.25
2018-04-07T10:01:02.415Z,41.15
2018-04-07T10:03:28.647Z,41.11
2018-04-07T10:05:54.842Z,41.06
2018-04-07T10:08:21.016Z,41.03
2018-04-07T10:10:47.218Z,41.02
2018-04-07T10:13:13.383Z,40.96
2018-04-07T10:15:39.913Z,40.91
2018-04-07T10:18:06.080Z,40.89
2018-04-07T10:20:32.237Z,40.82
2018-04-07T10:22:58.477Z,40.76
2018-04-07T10:25:24.770Z,40.78
2018-04-07T10:27:51.019Z,40.74
2018-04-07T10:30:17.243Z,40.77
2018-04-07T10:32:43.712Z,40.70
2018-04-07T10:35:09.862Z,40.71
2018-04-07T10:37:36.792Z,40.69
2018-04-07T10:40:03.033Z,40.66
2018-04-07T10:42:29.202Z,40.58
2018-04-07T10:44:55.447Z,40.55
2018-04-07T10:47:21.625Z,40.55
2018-04-07T10:49:47.821Z,40.52
2018-04-07T10:52:14.019Z,40.48
2018-04-07T10:54:40.257Z,40.46
2018-04-07T10:57:06.698Z,40.41
2018-04-07T10:59:32.901Z,40.36
2018-04-07T11:01:59.055Z,40.35
2018-04-07T11:04:25.272Z,40.27
2018-04-07T11:06:51.486Z,40.24
2018-04-07T11:09:17.648Z,40.19
2018-04-07T11:11:44.249Z,40.15
2018-04-07T11:14:10.411Z,40.10
2018-04-07T11:16:36.626Z,40.08
2018-04-07T11:19:02.875Z,40.04
2018-04-07T11:21:29.030Z,40.02
2018-04-07T11:23:55.184Z,40.02
2018-04-07T11:26:21.482Z,40.00
2018-04-07T11:28:47.643Z,39.95
2018-04-07T11:31:13.826Z,39.93
2018-04-07T11:33:40.047Z,39.93
2018-04-07T11:36:06.257Z,39.91
2018-04-07T11:38:32.463Z,39.86
2018-04-07T11:40:59.059Z,39.83
2018-04-07T11:43:25.210Z,39.78
2018-04-07T11:45:51.402Z,39.74
2018-04-07T11:48:17.596Z,39.66
2018-04-07T11:50:44.238Z,39.61
2018-04-07T11:53:10.408Z,39.56
2018-04-07T11:55:36.584Z,39.52
2018-04-07T11:58:03.024Z,39.46
2018-04-07T12:00:29.203Z,39.37
2018-04-07T12:02:55.391Z,39.28
2018-04-07T12:05:22.046Z,39.22
2018-04-07T12:07:48.262Z,39.16
2018-04-07T12:10:14.427Z,39.09
2018-04-07T12:12:47.566Z,39.02
2018-04-07T12:15:13.781Z,38.96
2018-04-07T12:17:39.945Z,38.94
2018-04-07T12:20:06.152Z,38.93
2018-04-07T12:22:32.901Z,38.87
2018-04-07T12:24:59.102Z,38.83
2018-04-07T12:27:25.289Z,38.82
2018-04-07T12:29:51.461Z,38.78
2018-04-07T12:32:18.181Z,38.75
2018-04-07T12:34:44.761Z,38.71
2018-04-07T12:37:11.290Z,38.70
2018-04-07T12:39:37.457Z,38.66
2018-04-07T12:42:03.667Z,38.62
2018-04-07T12:44:29.802Z,38.59
2018-04-07T12:46:56.009Z,38.55
2018-04-07T12:49:22.185Z,38.54
2018-04-07T12:51:48.333Z,38.54
2018-04-07T12:54:14.876Z,38.49
2018-04-07T12:56:41.036Z,38.46
2018-04-07T12:59:07.264Z,38.47
2018-04-07T13:01:33.473Z,38.50
2018-04-07T13:04:07.135Z,38.50
2018-04-07T13:06:33.416Z,38.46
2018-04-07T13:08:59.640Z,38.45
2018-04-07T13:11:25.853Z,38.46
2018-04-07T13:13:52.002Z,38.45
2018-04-07T13:16:18.223Z,38.44
2018-04-07T13:18:44.388Z,38.43
2018-04-07T13:21:10.874Z,38.40
2018-04-07T13:23:37.125Z,38.41
2018-04-07T13:26:03.327Z,38.42
2018-04-07T13:28:29.524Z,38.39
2018-04-07T13:30:55.702Z,38.38
2018-04-07T13:33:21.895Z,38.34
2018-04-07T13:35:48.434Z,38.31
2018-04-07T13:38:14.631Z,38.28
2018-04-07T13:40:40.816Z,38.26
2018-04-07T13:43:07.379Z,38.24
2018-04-07T13:45:33.859Z,38.18
2018-04-07T13:48:00.028Z,38.13
2018-04-07T13:50:26.205Z,38.12
2018-04-07T13:52:52.806Z,38.09
2018-04-07T13:55:19.066Z,38.06
2018-04-07T13:57:45.210Z,38.04
2018-04-07T14:00:11.743Z,38.02
2018-04-07T14:02:37.982Z,37.98
2018-04-07T14:05:04.139Z,37.95
2018-04-07T14:07:30.744Z,37.90
2018-04-07T14:09:56.907Z,37.85
2018-04-07T14:12:23.148Z,37.83
2018-04-07T14:14:49.289Z,37.77
2018-04-07T14:17:15.446Z,37.73
2018-04-07T14:19:41.959Z,37.66
2018-04-07T14:22:08.174Z,37.52
2018-04-07T14:24:34.335Z,37.37
2018-04-07T14:27:00.863Z,37.29
2018-04-07T14:29:27.087Z,37.19
2018-04-07T14:31:53.273Z,37.11
2018-04-07T14:34:19.427Z,36.98
2018-04-07T14:36:45.822Z,36.81
2018-04-07T14:39:12.011Z,36.51
2018-04-07T14:41:38.175Z,35.70
2018-04-07T14:44:04.635Z,34.36
2018-04-07T14:46:30.838Z,33.24
2018-04-07T14:48:57.003Z,32.93
2018-04-07T14:51:23.292Z,33.07
2018-04-07T14:53:49.448Z,33.18
2018-04-07T14:56:15.663Z,32.62
2018-04-07T14:58:42.254Z,31.99
2018-04-07T15:01:08.411Z,31.91
2018-04-07T15:03:34.627Z,32.41
2018-04-07T15:06:00.850Z,32.79
2018-04-07T15:08:27.015Z,33.01
2018-04-07T15:10:53.264Z,33.49
2018-04-07T15:13:19.456Z,34.04
2018-04-07T15:15:45.939Z,34.68
2018-04-07T15:18:12.150Z,35.09
2018-04-07T15:20:38.323Z,35.27
2018-04-07T15:23:04.474Z,35.50
2018-04-07T15:25:30.649Z,35.54
2018-04-07T15:27:57.184Z,34.83
2018-04-07T15:30:23.391Z,34.04
2018-04-07T15:32:50.136Z,33.64
2018-04-07T15:35:16.295Z,33.21
2018-04-07T15:37:42.449Z,32.87
2018-04-07T15:40:08.674Z,32.96
2018-04-07T15:42:34.845Z,32.96
2018-04-07T15:45:00.990Z,32.91
2018-04-07T15:47:27.250Z,32.68
2018-04-07T15:49:53.750Z,32.95
2018-04-07T15:52:19.910Z,33.05
2018-04-07T15:54:46.114Z,32.73
2018-04-07T15:57:12.276Z,32.52
2018-04-07T15:59:38.922Z,31.89
2018-04-07T16:02:05.202Z,31.37
2018-04-07T16:04:31.731Z,31.92
2018-04-07T16:06:58.034Z,32.90
2018-04-07T16:09:24.306Z,32.99
2018-04-07T16:11:50.528Z,32.49
2018-04-07T16:14:16.776Z,32.28
2018-04-07T16:16:43.012Z,32.25
2018-04-07T16:19:09.239Z,32.56
2018-04-07T16:21:35.455Z,33.13
2018-04-07T16:24:01.663Z,33.73
2018-04-07T16:26:27.831Z,34.38
2018-04-07T16:28:53.992Z,35.16
2018-04-07T16:31:20.562Z,35.94
2018-04-07T16:33:46.751Z,36.50
2018-04-07T16:36:13.359Z,36.82
2018-04-07T16:38:39.850Z,37.08
2018-04-07T16:41:06.015Z,37.38
2018-04-07T16:43:32.621Z,37.52
2018-04-07T16:45:58.851Z,37.73
2018-04-07T16:48:24.997Z,37.95
2018-04-07T16:50:58.174Z,38.10
2018-04-07T16:53:24.331Z,38.23
2018-04-07T16:55:50.481Z,38.42
2018-04-07T16:58:16.661Z,38.56
2018-04-07T17:00:42.856Z,38.73
2018-04-07T17:03:09.085Z,38.88
2018-04-07T17:05:35.246Z,39.02
2018-04-07T17:08:01.513Z,39.16
2018-04-07T17:10:27.657Z,39.27
2018-04-07T17:12:53.799Z,39.35
2018-04-07T17:15:20.392Z,39.41
2018-04-07T17:17:46.554Z,39.46
2018-04-07T17:20:12.733Z,39.51
2018-04-07T17:22:38.918Z,39.55
2018-04-07T17:25:05.130Z,39.59
2018-04-07T17:27:31.342Z,39.69
2018-04-07T17:29:57.585Z,39.79
2018-04-07T17:32:23.807Z,39.89
2018-04-07T17:34:49.956Z,39.97
2018-04-07T17:37:16.118Z,40.00
2018-04-07T17:39:42.365Z,40.08
2018-04-07T17:42:08.574Z,40.14
2018-04-07T17:44:34.760Z,40.25
2018-04-07T17:47:00.905Z,40.37
2018-04-07T17:49:27.081Z,40.45
2018-04-07T17:51:53.234Z,40.54
2018-04-07T17:54:20.201Z,40.57
2018-04-07T17:56:46.359Z,40.63
2018-04-07T17:59:12.845Z,40.69
2018-04-07T18:01:39.066Z,40.70
2018-04-07T18:04:05.227Z,40.77
2018-04-07T18:06:31.439Z,40.91
2018-04-07T18:08:57.585Z,40.99
2018-04-07T18:11:23.810Z,41.10
2018-04-07T18:13:50.323Z,41.22
2018-04-07T18:16:16.491Z,41.37
2018-04-07T18:18:42.740Z,41.49
2018-04-07T18:21:09.219Z,41.60
2018-04-07T18:23:35.384Z,41.68
2018-04-07T18:26:01.627Z,41.77
2018-04-07T18:28:28.106Z,41.88
2018-04-07T18:30:54.650Z,41.97
2018-04-07T18:33:20.912Z,42.03
2018-04-07T18:35:47.154Z,42.12
2018-04-07T18:38:13.311Z,42.20
2018-04-07T18:40:39.853Z,42.27
2018-04-07T18:43:06.026Z,42.31
2018-04-07T18:45:32.211Z,42.36
2018-04-07T18:47:58.400Z,42.45
2018-04-07T18:50:24.983Z,42.50
2018-04-07T18:52:51.521Z,42.56
2018-04-07T18:55:17.678Z,42.62
2018-04-07T18:57:44.218Z,42.67
2018-04-07T19:00:10.372Z,42.73
2018-04-07T19:02:36.844Z,42.79
2018-04-07T19:05:03.049Z,42.87
2018-04-07T19:07:29.246Z,42.98
2018-04-07T19:09:55.428Z,43.03
2018-04-07T19:12:22.015Z,43.09
2018-04-07T19:14:48.178Z,43.14
2018-04-07T19:17:14.610Z,43.20
2018-04-07T19:19:40.808Z,43.22
2018-04-07T19:22:07.022Z,43.24
2018-04-07T19:24:33.233Z,43.26
2018-04-07T19:26:59.398Z,43.26
2018-04-07T19:29:25.964Z,43.30
2018-04-07T19:31:52.129Z,43.31
2018-04-07T19:34:18.344Z,43.30
2018-04-07T19:36:44.508Z,43.31
2018-04-07T19:39:10.687Z,43.28
2018-04-07T19:41:36.855Z,43.27
2018-04-07T19:44:03.048Z,43.27
2018-04-07T19:46:29.194Z,43.29
2018-04-07T19:48:55.722Z,43.32
2018-04-07T19:51:21.922Z,43.33
2018-04-07T19:53:48.125Z,43.34
2018-04-07T19:56:14.370Z,43.36
2018-04-07T19:58:40.529Z,43.37
2018-04-07T20:01:06.714Z,43.37
2018-04-07T20:03:32.878Z,43.42
2018-04-07T20:05:59.080Z,43.44
2018-04-07T20:08:25.326Z,43.43
2018-04-07T20:10:51.853Z,43.46
2018-04-07T20:13:18.028Z,43.49
2018-04-07T20:15:44.495Z,43.52
2018-04-07T20:18:10.650Z,43.55
2018-04-07T20:20:36.852Z,43.57
2018-04-07T20:23:03.068Z,43.60
2018-04-07T20:25:29.666Z,43.63
2018-04-07T20:27:55.823Z,43.64
2018-04-07T20:30:22.281Z,43.67
2018-04-07T20:32:48.565Z,43.68
2018-04-07T20:35:14.749Z,43.71
2018-04-07T20:37:40.980Z,43.74
2018-04-07T20:40:07.134Z,43.74
2018-04-07T20:42:33.293Z,43.76
2018-04-07T20:44:59.480Z,43.77
2018-04-07T20:47:25.977Z,43.80
2018-04-07T20:49:52.154Z,43.84
2018-04-07T20:52:18.349Z,43.87
2018-04-07T20:54:44.582Z,43.89
2018-04-07T20:57:10.730Z,43.89
2018-04-07T20:59:36.909Z,43.91
2018-04-07T21:02:03.497Z,43.93
2018-04-07T21:04:29.663Z,43.94
2018-04-07T21:06:55.854Z,43.95
2018-04-07T21:09:22.044Z,43.92
2018-04-07T21:11:48.207Z,43.87
2018-04-07T21:14:14.440Z,43.84
2018-04-07T21:16:40.649Z,43.84
2018-04-07T21:19:06.839Z,43.87
2018-04-07T21:21:33.384Z,43.88
2018-04-07T21:23:59.610Z,43.91
2018-04-07T21:26:25.770Z,43.92
2018-04-07T21:28:52.262Z,43.95
2018-04-07T21:31:18.709Z,43.97
2018-04-07T21:33:44.906Z,43.97
2018-04-07T21:36:11.132Z,43.98
2018-04-07T21:38:37.277Z,43.96
2018-04-07T21:41:03.457Z,44.00
2018-04-07T21:43:29.666Z,44.01
2018-04-07T21:45:55.820Z,44.02
2018-04-07T21:48:22.335Z,44.06
2018-04-07T21:50:48.502Z,44.05
2018-04-07T21:53:14.698Z,44.05
2018-04-07T21:55:41.295Z,44.08
2018-04-07T21:58:07.498Z,44.11
2018-04-07T22:00:34.349Z,44.11
2018-04-07T22:03:00.516Z,44.12
2018-04-07T22:05:27.026Z,44.18
2018-04-07T22:07:53.207Z,44.27
2018-04-07T22:10:19.494Z,44.30
2018-04-07T22:12:46.210Z,44.37
2018-04-07T22:15:12.470Z,44.37
2018-04-07T22:17:38.674Z,44.42
2018-04-07T22:20:04.899Z,44.43
2018-04-07T22:22:31.188Z,44.45
2018-04-07T22:24:57.660Z,44.45
2018-04-07T22:27:23.823Z,44.45
2018-04-07T22:29:50.071Z,44.46
2018-04-07T22:32:16.292Z,44.47
2018-04-07T22:34:42.526Z,44.50
2018-04-07T22:37:08.742Z,44.51
2018-04-07T22:39:34.936Z,44.52
2018-04-07T22:42:01.138Z,44.54
2018-04-07T22:44:27.690Z,44.54
2018-04-07T22:46:53.921Z,44.56
2018-04-07T22:49:20.129Z,44.57
2018-04-07T22:51:46.335Z,44.60
2018-04-07T22:54:12.499Z,44.61
2018-04-07T22:56:38.744Z,44.60
2018-04-07T22:59:04.952Z,44.59
2018-04-07T23:01:31.124Z,44.58
2018-04-07T23:03:57.305Z,44.61
2018-04-07T23:06:23.560Z,44.60
2018-04-07T23:08:49.739Z,44.62
2018-04-07T23:11:16.201Z,44.59
2018-04-07T23:13:42.681Z,44.57
2018-04-07T23:16:09.185Z,44.55
2018-04-07T23:18:35.337Z,44.54
2018-04-07T23:21:01.550Z,44.56
2018-04-07T23:23:27.738Z,44.57
2018-04-07T23:25:53.901Z,44.60
2018-04-07T23:28:20.549Z,44.64
2018-04-07T23:30:46.724Z,44.65
2018-04-07T23:33:13.171Z,44.65
2018-04-07T23:35:39.402Z,44.63
2018-04-07T23:38:05.684Z,44.67
2018-04-07T23:40:31.845Z,44.69
2018-04-07T23:42:58.031Z,44.71
2018-04-07T23:45:24.254Z,44.72
2018-04-07T23:47:50.755Z,44.73
2018-04-07T23:50:17.297Z,44.74
2018-04-07T23:52:43.466Z,44.75
2018-04-07T23:55:09.668Z,44.73
2018-04-07T23:57:35.924Z,44.74
